createdAt,value
2022-11-29T00:01:04.315Z,52.97
2022-11-29T00:03:31.233Z,52.47
2022-11-29T00:06:05.950Z,52.80
2022-11-29T00:08:32.541Z,52.64
2022-11-29T00:11:04.454Z,53.13
2022-11-29T00:13:31.009Z,52.85
2022-11-29T00:16:05.290Z,53.02
2022-11-29T00:18:32.098Z,53.34
2022-11-29T00:20:59.535Z,53.78
2022-11-29T00:23:26.424Z,53.81
2022-11-29T00:25:53.576Z,53.25
2022-11-29T00:28:20.124Z,52.51
2022-11-29T00:30:47.272Z,52.64
2022-11-29T00:33:13.855Z,52.94
2022-11-29T00:35:40.816Z,53.33
2022-11-29T00:38:07.678Z,52.73
2022-11-29T00:40:34.243Z,52.39
2022-11-29T00:43:01.641Z,52.45
2022-11-29T00:45:28.173Z,52.37
2022-11-29T00:47:54.757Z,53.24
2022-11-29T00:50:21.573Z,52.24
2022-11-29T00:52:48.175Z,52.41
2022-11-29T00:55:14.964Z,52.87
2022-11-29T00:57:41.531Z,52.72
2022-11-29T01:00:08.744Z,52.72
2022-11-29T01:02:35.329Z,53.03
2022-11-29T01:05:01.883Z,52.77
2022-11-29T01:07:28.457Z,52.68
2022-11-29T01:09:54.987Z,52.91
2022-11-29T01:12:21.525Z,53.00
2022-11-29T01:14:48.213Z,53.22
2022-11-29T01:17:15.310Z,53.52
2022-11-29T01:19:45.235Z,53.39
2022-11-29T01:22:16.258Z,53.45
2022-11-29T01:24:43.123Z,53.69
2022-11-29T01:27:09.928Z,54.72
2022-11-29T01:29:36.849Z,54.44
2022-11-29T01:32:03.567Z,54.93
2022-11-29T01:34:30.493Z,55.76
2022-11-29T01:36:57.030Z,54.85
2022-11-29T01:39:23.592Z,54.10
2022-11-29T01:41:50.155Z,54.55
2022-11-29T01:44:16.592Z,55.07
2022-11-29T01:46:46.309Z,55.86
2022-11-29T01:49:16.919Z,56.52
2022-11-29T01:51:48.399Z,56.84
2022-11-29T01:54:15.217Z,56.62
2022-11-29T01:56:45.038Z,56.14
2022-11-29T01:59:15.613Z,56.05
2022-11-29T02:01:42.663Z,56.57
2022-11-29T02:04:09.778Z,56.46
2022-11-29T02:06:37.443Z,55.93
2022-11-29T02:09:04.788Z,55.24
2022-11-29T02:11:52.113Z,54.94
2022-11-29T02:14:21.720Z,54.59
2022-11-29T02:16:57.029Z,54.40
2022-11-29T02:19:45.324Z,55.47
2022-11-29T02:22:20.314Z,54.80
2022-11-29T02:25:05.076Z,54.46
2022-11-29T02:27:34.289Z,55.04
2022-11-29T02:30:08.953Z,54.76
2022-11-29T02:33:25.646Z,55.09
2022-11-29T02:36:15.569Z,55.04
2022-11-29T02:39:00.494Z,54.17
2022-11-29T02:41:47.284Z,53.98
2022-11-29T02:44:39.124Z,53.16
2022-11-29T02:47:47.423Z,53.18
2022-11-29T02:50:49.112Z,53.66
2022-11-29T02:53:24.758Z,53.43
2022-11-29T02:56:08.156Z,53.64
2022-11-29T02:58:47.472Z,54.32
2022-11-29T03:01:23.825Z,54.20
2022-11-29T03:04:04.403Z,54.44
2022-11-29T03:07:09.616Z,54.66
2022-11-29T03:09:55.750Z,54.37
2022-11-29T03:12:41.085Z,54.31
2022-11-29T03:15:19.801Z,54.54
2022-11-29T03:18:01.032Z,55.17
2022-11-29T03:21:10.129Z,54.48
2022-11-29T03:23:43.211Z,54.17
2022-11-29T03:26:31.723Z,54.33
2022-11-29T03:29:29.244Z,54.50
2022-11-29T03:32:14.426Z,53.99
2022-11-29T03:35:02.266Z,54.00
2022-11-29T03:37:44.135Z,54.11
2022-11-29T03:40:18.823Z,53.91
2022-11-29T03:42:58.897Z,53.40
2022-11-29T03:45:32.616Z,53.56
2022-11-29T03:48:20.657Z,53.86
2022-11-29T03:51:08.162Z,53.83
2022-11-29T03:54:03.292Z,54.09
2022-11-29T03:56:33.225Z,54.19
2022-11-29T03:59:37.899Z,54.18
2022-11-29T04:02:29.216Z,54.26
2022-11-29T04:05:40.322Z,54.54
2022-11-29T04:08:25.136Z,54.56
2022-11-29T04:11:36.209Z,54.35
2022-11-29T04:14:15.897Z,54.49
2022-11-29T04:17:12.224Z,54.69
2022-11-29T04:20:00.302Z,54.66
2022-11-29T04:22:44.192Z,55.06
2022-11-29T04:25:21.058Z,54.65
2022-11-29T04:28:01.737Z,54.55
2022-11-29T04:30:44.890Z,54.19
2022-11-29T04:33:24.448Z,53.59
2022-11-29T04:36:11.221Z,54.07
2022-11-29T04:39:08.481Z,54.17
2022-11-29T04:41:58.547Z,54.49
2022-11-29T04:44:41.297Z,54.49
2022-11-29T04:47:31.388Z,54.08
2022-11-29T04:50:11.469Z,54.30
2022-11-29T04:52:48.300Z,54.52
2022-11-29T04:55:27.684Z,54.38
2022-11-29T04:58:09.125Z,54.66
2022-11-29T05:00:50.451Z,55.17
2022-11-29T05:03:31.944Z,54.80
2022-11-29T05:06:18.951Z,54.70
2022-11-29T05:09:21.655Z,54.43
2022-11-29T05:12:04.436Z,54.57
2022-11-29T05:14:49.292Z,54.64
2022-11-29T05:18:03.570Z,54.16
2022-11-29T05:20:55.585Z,53.92
2022-11-29T05:24:11.267Z,53.87
2022-11-29T05:29:35.191Z,54.64
2022-11-29T05:32:28.482Z,55.17
2022-11-29T05:35:13.694Z,55.14
2022-11-29T05:37:49.437Z,55.14
2022-11-29T05:40:28.341Z,54.97
2022-11-29T05:43:06.780Z,55.45
2022-11-29T05:45:41.215Z,55.89
2022-11-29T05:48:24.720Z,55.29
2022-11-29T05:51:09.701Z,54.67
2022-11-29T05:53:51.932Z,54.34
2022-11-29T05:56:36.780Z,54.31
2022-11-29T05:59:08.423Z,54.54
2022-11-29T06:01:50.829Z,54.20
2022-11-29T06:04:28.986Z,54.08
2022-11-29T06:07:03.327Z,54.64
2022-11-29T06:09:48.162Z,54.38
2022-11-29T06:12:22.932Z,54.83
2022-11-29T06:15:17.336Z,54.76
2022-11-29T06:18:02.766Z,54.42
2022-11-29T06:21:02.839Z,54.14
2022-11-29T06:23:42.493Z,54.07
2022-11-29T06:26:44.850Z,54.12
2022-11-29T06:29:35.224Z,54.51
2022-11-29T06:32:26.667Z,55.34
2022-11-29T06:35:21.025Z,55.61
2022-11-29T06:37:55.823Z,54.92
2022-11-29T06:40:22.873Z,56.13
2022-11-29T06:42:49.564Z,55.00
2022-11-29T06:45:16.464Z,55.93
2022-11-29T06:47:48.695Z,55.77
2022-11-29T06:50:47.557Z,55.01
2022-11-29T06:53:29.343Z,55.58
2022-11-29T06:56:24.556Z,55.39
2022-11-29T06:59:18.795Z,55.47
2022-11-29T07:01:54.581Z,55.62
2022-11-29T07:04:32.977Z,56.18
2022-11-29T07:06:59.892Z,56.70
2022-11-29T07:09:33.348Z,56.74
2022-11-29T07:12:00.636Z,57.17
2022-11-29T07:14:27.484Z,56.68
2022-11-29T07:16:57.619Z,56.65
2022-11-29T07:19:36.766Z,56.89
2022-11-29T07:22:32.316Z,56.37
2022-11-29T07:25:09.901Z,55.80
2022-11-29T07:28:02.086Z,55.10
2022-11-29T07:31:07.439Z,54.38
2022-11-29T07:33:43.921Z,53.85
2022-11-29T07:36:22.208Z,53.67
2022-11-29T07:39:10.142Z,53.33
2022-11-29T07:42:00.887Z,52.80
2022-11-29T07:44:35.829Z,52.69
2022-11-29T07:47:02.435Z,52.60
2022-11-29T07:49:29.040Z,52.64
2022-11-29T07:51:56.293Z,52.93
2022-11-29T07:54:23.457Z,52.85
2022-11-29T07:56:50.096Z,52.65
2022-11-29T07:59:16.697Z,53.06
2022-11-29T08:01:43.831Z,53.06
2022-11-29T08:04:10.377Z,53.52
2022-11-29T08:06:37.617Z,53.73
2022-11-29T08:09:05.712Z,54.02
2022-11-29T08:11:32.702Z,54.06
2022-11-29T08:14:01.062Z,54.72
2022-11-29T08:16:28.167Z,54.75
2022-11-29T08:18:54.947Z,54.98
2022-11-29T08:21:21.776Z,54.27
2022-11-29T08:23:49.698Z,54.73
2022-11-29T08:26:17.617Z,54.54
2022-11-29T08:28:44.701Z,55.38
2022-11-29T08:31:13.078Z,55.75
2022-11-29T08:33:42.278Z,55.43
2022-11-29T08:36:15.213Z,55.34
2022-11-29T08:38:42.063Z,55.38
2022-11-29T08:41:11.360Z,55.68
2022-11-29T08:43:37.954Z,55.40
2022-11-29T08:46:05.182Z,55.46
2022-11-29T08:48:32.244Z,54.79
2022-11-29T08:50:58.912Z,54.67
2022-11-29T08:53:44.732Z,55.13
2022-11-29T08:57:04.476Z,55.41
2022-11-29T08:59:06.037Z,55.18
2022-11-29T09:01:32.765Z,55.12
2022-11-29T09:03:59.388Z,54.68
2022-11-29T09:06:28.799Z,54.53
2022-11-29T09:08:56.523Z,54.60
2022-11-29T09:11:25.069Z,54.67
2022-11-29T09:13:55.690Z,54.82
2022-11-29T09:16:25.676Z,53.98
2022-11-29T09:18:55.767Z,54.25
2022-11-29T09:21:25.646Z,53.97
2022-11-29T09:23:58.621Z,54.14
2022-11-29T09:26:27.913Z,54.06
2022-11-29T09:28:55.519Z,54.34
2022-11-29T09:31:22.465Z,54.69
2022-11-29T09:33:49.903Z,54.65
2022-11-29T09:36:16.481Z,55.07
2022-11-29T09:38:43.047Z,55.97
2022-11-29T09:41:33.881Z,55.88
2022-11-29T09:44:23.646Z,55.50
2022-11-29T09:47:00.286Z,54.76
2022-11-29T09:49:45.397Z,55.44
2022-11-29T09:52:36.227Z,54.92
2022-11-29T09:55:27.725Z,55.29
2022-11-29T09:57:56.545Z,55.22
2022-11-29T10:00:23.532Z,55.01
2022-11-29T10:02:52.484Z,55.14
2022-11-29T10:05:26.387Z,55.64
2022-11-29T10:08:08.629Z,54.74
2022-11-29T10:10:45.774Z,54.54
2022-11-29T10:13:25.285Z,54.20
2022-11-29T10:16:01.406Z,55.32
2022-11-29T10:18:45.285Z,55.75
2022-11-29T10:21:23.507Z,56.96
2022-11-29T10:23:57.685Z,56.54
2022-11-29T10:26:25.904Z,56.46
2022-11-29T10:28:57.925Z,55.99
2022-11-29T10:31:31.365Z,56.44
2022-11-29T10:34:07.905Z,55.74
2022-11-29T10:36:42.263Z,54.77
2022-11-29T10:39:21.110Z,54.42
2022-11-29T10:41:52.803Z,55.80
2022-11-29T10:44:20.968Z,55.61
2022-11-29T10:46:48.079Z,55.81
2022-11-29T10:49:18.649Z,55.84
2022-11-29T10:51:47.048Z,56.07
2022-11-29T10:54:37.519Z,55.13
2022-11-29T10:57:12.618Z,55.37
2022-11-29T10:59:39.134Z,56.15
2022-11-29T11:02:18.753Z,55.60
2022-11-29T11:04:47.564Z,57.04
2022-11-29T11:07:28.513Z,57.63
2022-11-29T11:09:57.943Z,56.27
2022-11-29T11:12:30.404Z,55.83
2022-11-29T11:15:16.481Z,55.81
2022-11-29T11:17:58.856Z,56.33
2022-11-29T11:20:29.105Z,56.07
2022-11-29T11:23:04.405Z,55.96
2022-11-29T11:25:35.037Z,55.93
2022-11-29T11:28:15.398Z,56.00
2022-11-29T11:30:51.400Z,55.98
2022-11-29T11:33:31.279Z,55.71
2022-11-29T11:36:06.140Z,55.34
2022-11-29T11:38:34.942Z,54.85
2022-11-29T11:41:22.546Z,55.28
2022-11-29T11:43:57.149Z,55.29
2022-11-29T11:46:44.205Z,55.66
2022-11-29T11:49:25.383Z,56.20
2022-11-29T11:51:52.355Z,55.82
2022-11-29T11:54:19.997Z,56.60
2022-11-29T11:56:46.701Z,56.03
2022-11-29T11:59:19.926Z,55.80
2022-11-29T12:01:46.998Z,54.86
2022-11-29T12:04:46.508Z,54.22
2022-11-29T12:07:38.926Z,53.97
2022-11-29T12:10:22.255Z,54.12
2022-11-29T12:12:50.418Z,54.00
2022-11-29T12:15:29.415Z,53.97
2022-11-29T12:18:01.918Z,53.97
2022-11-29T12:21:06.421Z,53.88
2022-11-29T12:23:52.864Z,53.60
2022-11-29T12:26:55.916Z,53.19
2022-11-29T12:29:19.115Z,53.38
2022-11-29T12:31:57.555Z,53.57
2022-11-29T12:34:29.989Z,55.15
2022-11-29T12:37:46.507Z,55.22
2022-11-29T12:40:57.155Z,56.79
2022-11-29T12:43:36.232Z,57.73
2022-11-29T12:46:26.323Z,57.30
2022-11-29T12:48:53.264Z,57.76
2022-11-29T12:51:48.130Z,57.77
2022-11-29T12:54:28.263Z,58.27
2022-11-29T12:57:14.469Z,57.84
2022-11-29T13:00:01.139Z,57.44
2022-11-29T13:02:43.397Z,57.86
2022-11-29T13:05:20.216Z,57.54
2022-11-29T13:07:55.853Z,56.61
2022-11-29T13:10:52.622Z,56.84
2022-11-29T13:13:42.665Z,56.64
2022-11-29T13:16:42.358Z,56.84
2022-11-29T13:19:13.832Z,56.99
2022-11-29T13:22:04.221Z,56.55
2022-11-29T13:24:42.760Z,57.49
2022-11-29T13:27:16.295Z,56.43
2022-11-29T13:29:43.210Z,57.16
2022-11-29T13:32:31.831Z,57.24
2022-11-29T13:35:05.923Z,57.77
2022-11-29T13:37:48.421Z,56.93
2022-11-29T13:40:59.784Z,56.94
2022-11-29T13:43:29.155Z,57.36
2022-11-29T13:46:14.076Z,57.31
2022-11-29T13:48:52.489Z,56.45
2022-11-29T13:51:29.853Z,55.69
2022-11-29T13:53:59.646Z,55.19
2022-11-29T13:56:33.473Z,55.30
2022-11-29T13:59:05.608Z,54.92
2022-11-29T14:01:44.087Z,54.83
2022-11-29T14:04:24.505Z,54.86
2022-11-29T14:07:02.636Z,55.01
2022-11-29T14:09:42.528Z,56.69
2022-11-29T14:12:37.242Z,57.11
2022-11-29T14:15:28.181Z,55.95
2022-11-29T14:18:01.440Z,55.51
2022-11-29T14:20:28.698Z,55.34
2022-11-29T14:23:04.925Z,55.36
2022-11-29T14:25:51.164Z,55.66
2022-11-29T14:28:18.452Z,54.87
2022-11-29T14:30:47.029Z,54.73
2022-11-29T14:33:38.860Z,55.67
2022-11-29T14:36:14.522Z,56.19
2022-11-29T14:38:58.983Z,55.84
2022-11-29T14:41:40.826Z,55.85
2022-11-29T14:44:29.371Z,56.50
2022-11-29T14:47:07.949Z,55.38
2022-11-29T14:49:41.092Z,55.37
2022-11-29T14:52:09.523Z,56.02
2022-11-29T14:54:54.641Z,56.77
2022-11-29T14:57:49.633Z,56.25
2022-11-29T15:00:42.418Z,56.40
2022-11-29T15:03:25.083Z,57.42
2022-11-29T15:05:59.220Z,57.72
2022-11-29T15:08:50.061Z,57.92
2022-11-29T15:11:33.441Z,56.72
2022-11-29T15:14:09.597Z,56.01
2022-11-29T15:17:00.396Z,55.12
2022-11-29T15:19:48.415Z,56.24
2022-11-29T15:22:26.456Z,55.85
2022-11-29T15:25:02.184Z,55.80
2022-11-29T15:27:29.425Z,55.27
2022-11-29T15:29:58.884Z,55.12
2022-11-29T15:32:30.998Z,55.69
2022-11-29T15:34:58.806Z,56.37
2022-11-29T15:37:40.723Z,56.81
2022-11-29T15:40:14.261Z,55.76
2022-11-29T15:42:53.230Z,55.01
2022-11-29T15:45:22.680Z,55.61
2022-11-29T15:47:49.454Z,55.76
2022-11-29T15:50:35.622Z,56.46
2022-11-29T15:53:12.996Z,57.23
2022-11-29T15:55:40.090Z,57.12
2022-11-29T15:58:09.290Z,56.67
2022-11-29T16:00:36.753Z,57.70
2022-11-29T16:03:23.530Z,57.70
2022-11-29T16:06:28.510Z,56.60
2022-11-29T16:09:01.669Z,56.63
2022-11-29T16:11:35.973Z,56.57
2022-11-29T16:14:11.911Z,56.62
2022-11-29T16:16:43.200Z,57.66
2022-11-29T16:19:16.072Z,58.16
2022-11-29T16:21:43.304Z,58.88
2022-11-29T16:24:20.609Z,58.86
2022-11-29T16:26:49.715Z,58.36
2022-11-29T16:29:28.882Z,58.06
2022-11-29T16:31:55.734Z,57.88
2022-11-29T16:34:33.001Z,58.50
2022-11-29T16:37:14.305Z,58.11
2022-11-29T16:39:46.218Z,57.93
2022-11-29T16:42:26.519Z,58.89
2022-11-29T16:44:58.305Z,59.84
2022-11-29T16:48:02.945Z,59.63
2022-11-29T16:50:51.261Z,59.14
2022-11-29T16:53:42.881Z,59.65
2022-11-29T16:56:14.878Z,58.54
2022-11-29T16:59:20.559Z,59.14
2022-11-29T17:01:31.583Z,59.58
2022-11-29T17:03:59.945Z,59.86
2022-11-29T17:06:27.586Z,59.52
2022-11-29T17:08:56.835Z,59.77
2022-11-29T17:11:23.705Z,59.15
2022-11-29T17:13:51.178Z,58.96
2022-11-29T17:16:21.048Z,59.96
2022-11-29T17:18:48.505Z,58.82
2022-11-29T17:21:30.681Z,60.03
2022-11-29T17:23:57.796Z,61.20
2022-11-29T17:26:24.656Z,61.43
2022-11-29T17:28:52.223Z,60.55
2022-11-29T17:31:25.708Z,60.91
2022-11-29T17:34:17.138Z,60.11
2022-11-29T17:36:46.616Z,60.41
2022-11-29T17:39:15.509Z,61.31
2022-11-29T17:41:42.234Z,60.60
2022-11-29T17:44:08.803Z,60.49
2022-11-29T17:46:36.526Z,60.83
2022-11-29T17:49:09.119Z,59.79
2022-11-29T17:51:54.314Z,61.97
2022-11-29T17:54:22.355Z,62.51
2022-11-29T17:56:49.534Z,62.18
2022-11-29T17:59:16.713Z,61.53
2022-11-29T18:01:43.537Z,60.39
2022-11-29T18:04:10.225Z,60.45
2022-11-29T18:06:39.538Z,60.37
2022-11-29T18:09:08.671Z,60.98
2022-11-29T18:11:46.343Z,60.76
2022-11-29T18:14:16.556Z,61.31
2022-11-29T18:16:45.243Z,61.26
2022-11-29T18:19:14.397Z,60.25
2022-11-29T18:21:42.350Z,59.42
2022-11-29T18:24:09.979Z,60.81
2022-11-29T18:26:37.594Z,60.20
2022-11-29T18:29:05.934Z,61.01
2022-11-29T18:31:35.438Z,60.28
2022-11-29T18:34:06.791Z,60.72
2022-11-29T18:36:36.755Z,61.58
2022-11-29T18:39:07.145Z,60.12
2022-11-29T18:41:34.650Z,60.03
2022-11-29T18:44:03.232Z,59.76
2022-11-29T18:46:32.745Z,60.36
2022-11-29T18:49:00.980Z,60.36
2022-11-29T18:51:29.697Z,59.79
2022-11-29T18:53:57.710Z,59.46
2022-11-29T18:56:26.849Z,60.53
2022-11-29T18:58:58.346Z,59.62
2022-11-29T19:01:28.122Z,60.67
2022-11-29T19:04:00.581Z,61.31
2022-11-29T19:06:39.448Z,61.40
2022-11-29T19:09:11.521Z,60.64
2022-11-29T19:11:38.732Z,60.54
2022-11-29T19:14:11.976Z,60.89
2022-11-29T19:16:41.387Z,60.79
2022-11-29T19:19:08.556Z,61.43
2022-11-29T19:21:35.532Z,61.76
2022-11-29T19:24:05.358Z,62.16
2022-11-29T19:26:32.695Z,61.06
2022-11-29T19:29:00.637Z,61.53
2022-11-29T19:31:27.828Z,62.49
2022-11-29T19:33:55.605Z,60.84
2022-11-29T19:36:25.171Z,61.38
2022-11-29T19:38:54.332Z,60.89
2022-11-29T19:41:24.245Z,62.15
2022-11-29T19:43:52.267Z,62.66
2022-11-29T19:46:24.254Z,61.80
2022-11-29T19:48:55.695Z,62.32
2022-11-29T19:51:23.476Z,62.05
2022-11-29T19:53:55.149Z,61.47
2022-11-29T19:56:23.286Z,61.84
2022-11-29T19:58:51.246Z,61.28
2022-11-29T20:01:24.923Z,61.74
2022-11-29T20:03:52.579Z,62.45
2022-11-29T20:06:19.818Z,62.45
2022-11-29T20:08:47.436Z,61.03
2022-11-29T20:11:20.440Z,60.80
2022-11-29T20:13:52.812Z,61.24
2022-11-29T20:16:22.352Z,60.92
2022-11-29T20:18:51.343Z,60.65
2022-11-29T20:21:24.975Z,60.58
2022-11-29T20:23:56.535Z,60.28
2022-11-29T20:26:24.326Z,59.33
2022-11-29T20:28:51.252Z,60.28
2022-11-29T20:31:21.535Z,60.94
2022-11-29T20:33:50.771Z,60.34
2022-11-29T20:36:36.025Z,61.10
2022-11-29T20:39:28.884Z,60.87
2022-11-29T20:42:20.447Z,61.07
2022-11-29T20:44:50.124Z,62.72
2022-11-29T20:47:19.170Z,61.50
2022-11-29T20:49:46.885Z,62.65
2022-11-29T20:52:28.925Z,63.28
2022-11-29T20:54:55.941Z,62.30
2022-11-29T20:57:24.977Z,62.13
2022-11-29T20:59:51.701Z,61.28
2022-11-29T21:02:22.458Z,60.69
2022-11-29T21:04:49.391Z,60.35
2022-11-29T21:07:16.477Z,60.62
2022-11-29T21:09:43.212Z,60.36
2022-11-29T21:12:12.003Z,62.04
2022-11-29T21:14:38.987Z,61.77
2022-11-29T21:17:06.145Z,59.61
2022-11-29T21:19:33.051Z,59.67
2022-11-29T21:22:16.786Z,60.75
2022-11-29T21:24:53.353Z,61.19
2022-11-29T21:27:30.968Z,60.67
2022-11-29T21:29:57.932Z,59.51
2022-11-29T21:32:26.686Z,60.86
2022-11-29T21:34:53.373Z,60.09
2022-11-29T21:37:24.731Z,60.19
2022-11-29T21:39:52.380Z,61.77
2022-11-29T21:42:19.448Z,62.17
2022-11-29T21:44:46.690Z,61.54
2022-11-29T21:47:13.863Z,60.47
2022-11-29T21:49:40.558Z,59.23
2022-11-29T21:52:07.923Z,59.40
2022-11-29T21:54:34.523Z,59.46
2022-11-29T21:57:01.647Z,58.92
2022-11-29T21:59:29.017Z,59.44
2022-11-29T22:01:56.039Z,58.46
2022-11-29T22:04:23.139Z,58.46
2022-11-29T22:06:50.166Z,58.42
2022-11-29T22:09:16.689Z,58.60
2022-11-29T22:11:43.472Z,60.33
2022-11-29T22:14:15.515Z,59.20
2022-11-29T22:16:52.564Z,59.90
2022-11-29T22:19:22.016Z,59.56
2022-11-29T22:21:51.012Z,59.92
2022-11-29T22:24:20.237Z,60.40
2022-11-29T22:26:47.801Z,59.31
2022-11-29T22:29:15.286Z,59.76
2022-11-29T22:31:43.807Z,59.56
2022-11-29T22:34:11.686Z,59.77
2022-11-29T22:36:38.969Z,59.61
2022-11-29T22:39:07.592Z,59.48
2022-11-29T22:41:35.973Z,58.62
2022-11-29T22:44:03.059Z,58.06
2022-11-29T22:46:30.176Z,58.84
2022-11-29T22:48:58.281Z,60.21
2022-11-29T22:51:33.232Z,60.76
2022-11-29T22:54:02.715Z,63.09
2022-11-29T22:56:32.911Z,62.90
2022-11-29T22:58:59.487Z,61.90
2022-11-29T23:01:28.887Z,61.76
2022-11-29T23:03:58.676Z,60.89
2022-11-29T23:06:30.793Z,60.36
2022-11-29T23:08:59.445Z,60.17
2022-11-29T23:11:28.679Z,59.71
2022-11-29T23:13:55.803Z,59.25
2022-11-29T23:16:25.680Z,58.70
2022-11-29T23:18:53.990Z,58.18
2022-11-29T23:21:23.696Z,58.11
2022-11-29T23:23:56.012Z,57.84
2022-11-29T23:26:43.557Z,57.91
2022-11-29T23:29:12.888Z,57.65
2022-11-29T23:31:40.106Z,58.43
2022-11-29T23:34:06.934Z,59.10
2022-11-29T23:36:34.617Z,59.45
2022-11-29T23:39:05.549Z,59.03
2022-11-29T23:41:33.213Z,59.65
2022-11-29T23:43:59.794Z,59.63
2022-11-29T23:46:26.602Z,59.03
2022-11-29T23:48:53.254Z,61.08
2022-11-29T23:51:20.102Z,60.25
2022-11-29T23:53:51.311Z,60.04
2022-11-29T23:56:18.808Z,61.08
2022-11-29T23:58:45.712Z,60.20
